createdAt,value
2017-10-05T00:01:18.038Z,2.80
2017-10-05T00:03:45.824Z,3.80
2017-10-05T00:06:13.399Z,3.73
2017-10-05T00:08:40.954Z,3.07
2017-10-05T00:11:08.490Z,2.40
2017-10-05T00:13:36.057Z,2.43
2017-10-05T00:16:04.436Z,2.80
2017-10-05T00:18:32.295Z,2.70
2017-10-05T00:21:00.190Z,3.33
2017-10-05T00:23:27.889Z,3.13
2017-10-05T00:25:55.573Z,2.93
2017-10-05T00:28:23.117Z,2.57
2017-10-05T00:30:50.924Z,3.07
2017-10-05T00:33:29.485Z,2.60
2017-10-05T00:35:57.973Z,3.40
2017-10-05T00:38:25.695Z,2.97
2017-10-05T00:40:54.015Z,2.57
2017-10-05T00:43:22.625Z,3.60
2017-10-05T00:45:50.451Z,3.30
2017-10-05T00:48:18.251Z,3.00
2017-10-05T00:50:46.571Z,3.20
2017-10-05T00:53:25.009Z,3.90
2017-10-05T00:55:52.563Z,3.40
2017-10-05T00:58:21.509Z,3.60
2017-10-05T01:00:49.850Z,3.67
2017-10-05T01:03:20.386Z,3.70
2017-10-05T01:05:48.065Z,3.30
2017-10-05T01:08:15.793Z,3.90
2017-10-05T01:10:44.199Z,3.40
2017-10-05T01:13:12.153Z,4.40
2017-10-05T01:15:40.060Z,3.53
2017-10-05T01:18:08.589Z,3.27
2017-10-05T01:20:37.356Z,3.20
2017-10-05T01:23:05.347Z,3.60
2017-10-05T01:25:33.730Z,3.23
2017-10-05T01:28:01.361Z,5.23
2017-10-05T01:30:29.933Z,3.53
2017-10-05T01:32:57.628Z,4.23
2017-10-05T01:35:25.168Z,3.13
2017-10-05T01:37:52.760Z,4.23
2017-10-05T01:40:21.409Z,3.53
2017-10-05T01:42:49.948Z,3.97
2017-10-05T01:45:17.612Z,4.00
2017-10-05T01:47:45.168Z,3.67
2017-10-05T01:50:12.694Z,3.90
2017-10-05T01:52:40.390Z,3.93
2017-10-05T01:55:10.365Z,3.60
2017-10-05T01:57:38.721Z,4.20
2017-10-05T02:00:07.097Z,4.40
2017-10-05T02:02:35.608Z,4.00
2017-10-05T02:05:03.305Z,3.63
2017-10-05T02:07:30.885Z,3.27
2017-10-05T02:09:58.429Z,3.63
2017-10-05T02:12:25.970Z,3.80
2017-10-05T02:14:53.637Z,4.40
2017-10-05T02:17:27.819Z,4.30
2017-10-05T02:20:05.277Z,3.50
2017-10-05T02:22:34.108Z,4.00
2017-10-05T02:25:01.624Z,4.47
2017-10-05T02:27:29.321Z,3.77
2017-10-05T02:29:57.013Z,3.63
2017-10-05T02:32:25.391Z,4.40
2017-10-05T02:34:52.914Z,3.53
2017-10-05T02:37:20.453Z,3.30
2017-10-05T02:39:48.854Z,3.43
2017-10-05T02:42:16.954Z,3.60
2017-10-05T02:44:44.788Z,4.40
2017-10-05T02:47:14.078Z,3.87
2017-10-05T02:49:42.065Z,3.43
2017-10-05T02:52:10.812Z,4.10
2017-10-05T02:54:39.006Z,4.47
2017-10-05T02:57:06.642Z,3.37
2017-10-05T02:59:34.456Z,3.63
2017-10-05T03:02:02.108Z,4.20
2017-10-05T03:04:30.391Z,3.63
2017-10-05T03:07:09.852Z,3.90
2017-10-05T03:09:38.329Z,4.07
2017-10-05T03:12:06.019Z,3.80
2017-10-05T03:14:34.389Z,3.87
2017-10-05T03:17:01.922Z,4.00
2017-10-05T03:19:29.657Z,3.57
2017-10-05T03:21:58.065Z,3.43
2017-10-05T03:24:25.606Z,2.97
2017-10-05T03:26:53.310Z,3.93
2017-10-05T03:29:21.136Z,3.77
2017-10-05T03:31:48.966Z,4.20
2017-10-05T03:34:16.726Z,3.73
2017-10-05T03:36:45.243Z,3.60
2017-10-05T03:39:12.797Z,4.00
2017-10-05T03:41:41.412Z,3.93
2017-10-05T03:44:10.929Z,3.30
2017-10-05T03:46:38.598Z,3.93
2017-10-05T03:49:06.137Z,4.40
2017-10-05T03:51:34.562Z,3.53
2017-10-05T03:54:02.347Z,3.40
2017-10-05T03:56:30.925Z,3.60
2017-10-05T03:58:59.272Z,3.47
2017-10-05T04:01:27.171Z,4.03
2017-10-05T04:03:55.768Z,4.20
2017-10-05T04:06:23.409Z,3.87
2017-10-05T04:08:51.971Z,4.13
2017-10-05T04:11:19.545Z,4.77
2017-10-05T04:13:47.204Z,3.87
2017-10-05T04:16:15.610Z,3.60
2017-10-05T04:18:43.348Z,3.83
2017-10-05T04:21:11.099Z,4.60
2017-10-05T04:23:38.698Z,4.13
2017-10-05T04:26:06.645Z,4.37
2017-10-05T04:28:34.223Z,3.97
2017-10-05T04:31:02.013Z,4.00
2017-10-05T04:33:29.732Z,4.10
2017-10-05T04:35:58.178Z,4.43
2017-10-05T04:38:25.798Z,4.67
2017-10-05T04:40:54.812Z,6.13
2017-10-05T04:43:23.189Z,4.50
2017-10-05T04:45:51.765Z,4.87
2017-10-05T04:48:19.537Z,4.77
2017-10-05T04:50:47.050Z,4.17
2017-10-05T04:53:14.749Z,4.70
2017-10-05T04:55:42.372Z,4.80
2017-10-05T04:58:09.927Z,4.73
2017-10-05T05:00:37.725Z,5.10
2017-10-05T05:03:06.668Z,4.90
2017-10-05T05:05:34.269Z,4.80
2017-10-05T05:08:06.521Z,6.03
2017-10-05T05:10:34.513Z,6.13
2017-10-05T05:13:02.135Z,5.00
2017-10-05T05:15:30.085Z,5.60
2017-10-05T05:17:57.646Z,6.20
2017-10-05T05:20:25.945Z,6.20
2017-10-05T05:22:54.909Z,5.50
2017-10-05T05:25:23.686Z,5.60
2017-10-05T05:27:51.210Z,5.90
2017-10-05T05:30:18.734Z,6.00
2017-10-05T05:32:47.062Z,5.73
2017-10-05T05:35:14.566Z,5.77
2017-10-05T05:37:42.076Z,4.93
2017-10-05T05:40:10.342Z,5.77
2017-10-05T05:42:38.677Z,5.50
2017-10-05T05:45:06.197Z,6.73
2017-10-05T05:47:33.709Z,6.47
2017-10-05T05:50:02.531Z,6.70
2017-10-05T05:52:30.988Z,6.63
2017-10-05T05:54:59.258Z,5.90
2017-10-05T05:57:27.545Z,6.30
2017-10-05T05:59:55.320Z,7.20
2017-10-05T06:02:22.937Z,7.03
2017-10-05T06:04:50.851Z,6.40
2017-10-05T06:07:18.558Z,6.90
2017-10-05T06:09:46.599Z,6.60
2017-10-05T06:12:14.192Z,8.60
2017-10-05T06:14:42.529Z,7.23
2017-10-05T06:17:11.135Z,6.23
2017-10-05T06:19:39.927Z,7.20
2017-10-05T06:22:08.427Z,8.80
2017-10-05T06:24:36.245Z,8.10
2017-10-05T06:27:03.954Z,8.50
2017-10-05T06:29:31.617Z,8.80
2017-10-05T06:31:59.426Z,9.20
2017-10-05T06:34:27.142Z,8.00
2017-10-05T06:36:58.386Z,8.50
2017-10-05T06:39:28.181Z,8.67
2017-10-05T06:41:57.321Z,8.83
2017-10-05T06:44:24.932Z,8.40
2017-10-05T06:46:52.822Z,9.03
2017-10-05T06:49:23.085Z,8.00
2017-10-05T06:51:52.938Z,9.27
2017-10-05T06:54:22.701Z,9.00
2017-10-05T06:56:50.313Z,8.63
2017-10-05T06:59:18.842Z,8.17
2017-10-05T07:01:50.385Z,8.57
2017-10-05T07:04:24.145Z,8.77
2017-10-05T07:06:51.959Z,8.67
2017-10-05T07:09:23.636Z,9.40
2017-10-05T07:12:01.556Z,9.23
2017-10-05T07:14:30.232Z,10.30
2017-10-05T07:16:58.639Z,9.57
2017-10-05T07:19:26.621Z,8.00
2017-10-05T07:21:55.285Z,9.13
2017-10-05T07:24:23.067Z,9.00
2017-10-05T07:26:52.411Z,11.20
2017-10-05T07:29:20.189Z,10.67
2017-10-05T07:31:47.988Z,11.27
2017-10-05T07:34:20.856Z,11.40
2017-10-05T07:36:49.608Z,11.20
2017-10-05T07:39:21.369Z,10.13
2017-10-05T07:41:49.623Z,11.70
2017-10-05T07:44:18.058Z,13.13
2017-10-05T07:46:46.304Z,12.70
2017-10-05T07:49:13.994Z,12.37
2017-10-05T07:51:41.854Z,13.27
2017-10-05T07:54:11.413Z,13.07
2017-10-05T07:56:39.307Z,14.50
2017-10-05T07:59:08.747Z,12.77
2017-10-05T08:01:38.562Z,13.03
2017-10-05T08:04:07.299Z,14.53
2017-10-05T08:06:35.383Z,12.53
2017-10-05T08:09:04.355Z,12.40
2017-10-05T08:11:32.271Z,13.37
2017-10-05T08:14:06.897Z,13.50
2017-10-05T08:16:43.389Z,11.83
2017-10-05T08:19:20.746Z,11.47
2017-10-05T08:21:49.092Z,11.50
2017-10-05T08:24:20.840Z,10.67
2017-10-05T08:26:53.210Z,10.60
2017-10-05T08:29:21.630Z,12.10
2017-10-05T08:31:50.438Z,10.83
2017-10-05T08:34:19.332Z,10.50
2017-10-05T08:36:50.861Z,9.37
2017-10-05T08:39:18.577Z,10.10
2017-10-05T08:41:46.528Z,9.80
2017-10-05T08:44:20.788Z,10.47
2017-10-05T08:46:48.667Z,8.10
2017-10-05T08:49:18.019Z,8.83
2017-10-05T08:51:45.786Z,8.23
2017-10-05T08:54:13.562Z,9.33
2017-10-05T08:56:54.010Z,8.70
2017-10-05T08:59:26.088Z,7.70
2017-10-05T09:01:54.582Z,7.03
2017-10-05T09:04:33.114Z,7.07
2017-10-05T09:07:01.321Z,6.40
2017-10-05T09:09:29.648Z,6.23
2017-10-05T09:12:00.537Z,7.00
2017-10-05T09:14:37.020Z,6.70
2017-10-05T09:17:06.133Z,6.47
2017-10-05T09:19:37.494Z,5.67
2017-10-05T09:22:05.890Z,6.33
2017-10-05T09:24:35.382Z,5.40
2017-10-05T09:27:04.722Z,6.50
2017-10-05T09:29:32.568Z,5.90
2017-10-05T09:32:11.481Z,5.57
2017-10-05T09:34:43.459Z,4.87
2017-10-05T09:37:11.013Z,5.53
2017-10-05T09:39:38.707Z,4.53
2017-10-05T09:42:06.330Z,5.60
2017-10-05T09:44:34.932Z,5.07
2017-10-05T09:47:07.508Z,4.67
2017-10-05T09:49:36.666Z,4.43
2017-10-05T09:52:04.991Z,4.10
2017-10-05T09:54:33.719Z,4.47
2017-10-05T09:57:02.418Z,4.40
2017-10-05T09:59:30.648Z,4.27
2017-10-05T10:01:58.449Z,4.20
2017-10-05T10:04:26.260Z,3.83
2017-10-05T10:06:54.780Z,4.00
2017-10-05T10:09:22.633Z,3.47
2017-10-05T10:11:50.616Z,3.60
2017-10-05T10:14:20.466Z,4.03
2017-10-05T10:16:48.524Z,4.10
2017-10-05T10:19:17.532Z,6.00
2017-10-05T10:21:48.584Z,4.13
2017-10-05T10:24:44.456Z,4.23
2017-10-05T10:27:27.259Z,3.23
2017-10-05T10:30:02.304Z,2.87
2017-10-05T10:32:30.560Z,4.10
2017-10-05T10:35:05.863Z,3.67
2017-10-05T10:37:33.997Z,3.53
2017-10-05T10:40:14.443Z,2.90
2017-10-05T10:42:49.249Z,3.90
2017-10-05T10:45:42.526Z,4.00
2017-10-05T10:51:14.642Z,4.00
2017-10-05T10:53:49.930Z,3.10
2017-10-05T10:56:19.321Z,5.47
2017-10-05T10:58:47.436Z,4.23
2017-10-05T11:01:29.488Z,4.67
2017-10-05T11:04:10.686Z,3.47
2017-10-05T11:09:24.484Z,3.30
2017-10-05T11:11:53.227Z,2.23
2017-10-05T11:14:21.844Z,3.50
2017-10-05T11:17:11.272Z,2.63
2017-10-05T11:19:38.840Z,2.47
2017-10-05T11:22:09.274Z,2.30
2017-10-05T11:24:37.748Z,3.10
2017-10-05T11:27:05.828Z,2.30
2017-10-05T11:29:34.921Z,2.67
2017-10-05T11:32:08.079Z,2.70
2017-10-05T11:34:40.148Z,2.50
2017-10-05T11:37:15.576Z,2.73
2017-10-05T11:39:43.321Z,2.50
2017-10-05T11:42:13.508Z,2.10
2017-10-05T11:44:44.704Z,2.03
2017-10-05T11:47:13.374Z,2.30
2017-10-05T11:49:42.377Z,2.90
2017-10-05T11:52:13.728Z,2.57
2017-10-05T11:54:42.622Z,2.37
2017-10-05T11:57:21.893Z,1.97
2017-10-05T11:59:49.553Z,2.10
2017-10-05T12:02:22.036Z,1.93
2017-10-05T12:04:51.002Z,2.30
2017-10-05T12:07:20.269Z,2.00
2017-10-05T12:09:50.044Z,2.17
2017-10-05T12:12:18.251Z,2.20
2017-10-05T12:15:02.896Z,2.20
2017-10-05T12:17:30.844Z,2.23
2017-10-05T12:19:58.639Z,2.23
2017-10-05T12:22:30.855Z,2.90
2017-10-05T12:24:59.287Z,2.50
2017-10-05T12:27:29.284Z,1.90
2017-10-05T12:29:57.228Z,2.30
2017-10-05T12:32:26.380Z,2.10
2017-10-05T12:34:55.517Z,2.00
2017-10-05T12:37:38.167Z,2.13
2017-10-05T12:40:17.382Z,2.37
2017-10-05T12:42:47.625Z,2.60
2017-10-05T12:45:15.949Z,2.33
2017-10-05T12:47:51.904Z,1.90
2017-10-05T12:50:23.894Z,2.00
2017-10-05T12:56:03.145Z,2.10
2017-10-05T12:58:31.336Z,2.20
2017-10-05T13:00:59.177Z,2.00
2017-10-05T13:03:31.494Z,2.17
2017-10-05T13:06:00.573Z,2.37
2017-10-05T13:20:18.283Z,2.43
2017-10-05T13:22:52.181Z,2.47
2017-10-05T13:25:19.906Z,1.90
2017-10-05T13:28:02.778Z,1.63
2017-10-05T13:30:31.649Z,1.50
2017-10-05T13:33:18.697Z,1.60
2017-10-05T13:38:46.527Z,1.33
2017-10-05T14:44:10.325Z,1.50
2017-10-05T14:46:48.488Z,1.67
2017-10-05T14:49:17.386Z,2.90
2017-10-05T14:51:45.086Z,1.30
2017-10-05T14:56:48.749Z,2.37
2017-10-05T14:59:19.786Z,1.77
2017-10-05T15:01:57.746Z,2.17
2017-10-05T15:18:09.778Z,2.23
2017-10-05T15:23:20.316Z,1.93
2017-10-05T15:25:48.366Z,1.93
2017-10-05T15:28:18.513Z,2.43
2017-10-05T15:33:52.350Z,2.07
2017-10-05T15:39:17.399Z,2.73
2017-10-05T15:44:46.031Z,1.60
2017-10-05T15:47:29.033Z,2.20
2017-10-05T15:50:41.804Z,2.47
2017-10-05T15:56:08.165Z,4.77
2017-10-05T16:02:01.914Z,2.27
2017-10-05T18:14:05.137Z,3.60
2017-10-05T19:08:28.320Z,3.60
2017-10-05T19:22:43.299Z,3.70
2017-10-05T19:28:04.515Z,3.77
2017-10-05T19:33:26.989Z,2.80
2017-10-05T19:39:27.884Z,3.00
2017-10-05T19:44:59.766Z,2.83
2017-10-05T19:47:43.915Z,3.43
2017-10-05T19:50:27.530Z,2.67
2017-10-05T19:53:06.687Z,3.30
2017-10-05T19:58:55.344Z,2.60
2017-10-05T20:01:27.116Z,3.20
2017-10-05T20:04:01.404Z,3.73
2017-10-05T20:06:29.736Z,4.37
2017-10-05T20:18:52.512Z,2.23
2017-10-05T20:27:28.469Z,5.10
2017-10-05T20:30:20.153Z,2.77
2017-10-05T20:35:53.674Z,2.20
2017-10-05T20:38:26.877Z,3.23
2017-10-05T20:40:56.614Z,3.87
2017-10-05T21:00:19.327Z,2.50
2017-10-05T21:02:47.208Z,3.03
2017-10-05T21:05:26.329Z,2.50
2017-10-05T21:10:49.137Z,2.53
2017-10-05T21:13:36.330Z,2.73
2017-10-05T21:19:17.508Z,2.03
2017-10-05T21:21:47.234Z,2.53
2017-10-05T21:24:19.049Z,2.20
2017-10-05T21:30:05.324Z,2.77
2017-10-05T21:32:46.381Z,2.00
2017-10-05T21:35:18.178Z,2.07
2017-10-05T21:40:43.970Z,1.90
2017-10-05T21:43:14.491Z,1.70
2017-10-05T21:49:10.360Z,2.43
2017-10-05T21:51:38.735Z,2.53
2017-10-05T21:57:18.924Z,2.10
2017-10-05T22:00:07.069Z,2.17
2017-10-05T22:02:36.094Z,1.90
2017-10-05T22:08:10.338Z,1.93
2017-10-05T22:10:38.079Z,1.93
2017-10-05T22:13:06.791Z,2.13
2017-10-05T22:18:54.928Z,2.07
2017-10-05T22:21:28.936Z,2.53
2017-10-05T22:27:16.159Z,2.40
2017-10-05T22:30:04.539Z,2.50
2017-10-05T22:33:54.650Z,2.50
2017-10-05T22:45:35.340Z,3.10
2017-10-05T23:10:58.113Z,2.37
2017-10-05T23:16:03.238Z,2.30
2017-10-05T23:18:38.907Z,2.50
2017-10-05T23:21:11.121Z,2.73
2017-10-05T23:23:58.662Z,2.43
2017-10-05T23:26:40.815Z,2.90
2017-10-05T23:29:10.051Z,2.20
2017-10-05T23:45:36.859Z,2.40
2017-10-05T23:51:29.890Z,2.57
2017-10-05T23:54:17.570Z,2.10
